createdAt,value
2016-03-04T00:00:16.354Z,958.67
2016-03-04T00:01:16.357Z,958.69
2016-03-04T00:02:16.360Z,958.68
2016-03-04T00:03:16.347Z,958.72
2016-03-04T00:04:16.349Z,958.71
2016-03-04T00:05:16.351Z,958.74
2016-03-04T00:06:16.338Z,958.72
2016-03-04T00:07:16.341Z,958.72
2016-03-04T00:08:16.344Z,958.72
2016-03-04T00:09:16.347Z,958.69
2016-03-04T00:10:16.350Z,958.68
2016-03-04T00:11:16.352Z,958.69
2016-03-04T00:12:16.340Z,958.68
2016-03-04T00:13:16.342Z,958.69
2016-03-04T00:14:16.345Z,958.67
2016-03-04T00:15:16.348Z,958.72
2016-03-04T00:16:16.350Z,958.73
2016-03-04T00:17:16.353Z,958.72
2016-03-04T00:18:16.340Z,958.73
2016-03-04T00:19:16.342Z,958.77
2016-03-04T00:20:16.345Z,958.76
2016-03-04T00:21:16.348Z,958.8
2016-03-04T00:22:16.350Z,958.8
2016-03-04T00:23:16.334Z,958.79
2016-03-04T00:24:16.337Z,958.8
2016-03-04T00:25:16.340Z,958.84
2016-03-04T00:26:16.343Z,958.85
2016-03-04T00:27:16.331Z,958.86
2016-03-04T00:28:16.332Z,958.88
2016-03-04T00:29:16.336Z,958.84
2016-03-04T00:30:16.338Z,958.83
2016-03-04T00:31:16.330Z,958.88
2016-03-04T00:32:16.337Z,958.86
2016-03-04T00:33:16.340Z,958.84
2016-03-04T00:34:16.327Z,958.83
2016-03-04T00:35:16.330Z,958.82
2016-03-04T00:36:16.349Z,958.82
2016-03-04T00:37:16.335Z,958.85
2016-03-04T00:38:16.337Z,958.85
2016-03-04T00:39:16.325Z,958.86
2016-03-04T00:40:16.329Z,958.87
2016-03-04T00:41:16.331Z,958.85
2016-03-04T00:42:16.334Z,958.87
2016-03-04T00:43:16.336Z,958.88
2016-03-04T00:44:16.323Z,958.84
2016-03-04T00:45:16.325Z,958.9
2016-03-04T00:46:16.328Z,958.88
2016-03-04T00:47:16.331Z,958.84
2016-03-04T00:48:16.334Z,958.9
2016-03-04T00:49:16.337Z,958.88
2016-03-04T00:50:16.323Z,958.92
2016-03-04T00:51:16.326Z,958.89
2016-03-04T00:52:16.328Z,958.93
2016-03-04T00:53:16.332Z,958.93
2016-03-04T00:54:16.334Z,958.94
2016-03-04T00:55:16.323Z,958.92
2016-03-04T00:56:16.325Z,958.93
2016-03-04T00:57:16.328Z,958.95
2016-03-04T00:58:16.330Z,958.92
2016-03-04T00:59:16.317Z,958.89
2016-03-04T01:00:16.320Z,958.94
2016-03-04T01:01:16.323Z,958.89
2016-03-04T01:02:16.325Z,958.93
2016-03-04T01:03:16.328Z,958.91
2016-03-04T01:04:16.331Z,958.94
2016-03-04T01:05:16.318Z,958.91
2016-03-04T01:06:16.322Z,958.9
2016-03-04T01:07:16.324Z,958.91
2016-03-04T01:08:16.311Z,958.9
2016-03-04T01:09:16.313Z,958.92
2016-03-04T01:10:16.316Z,958.88
2016-03-04T01:11:16.319Z,958.91
2016-03-04T01:12:16.322Z,958.9
2016-03-04T01:13:16.324Z,958.85
2016-03-04T01:14:16.311Z,958.85
2016-03-04T01:15:16.314Z,958.81
2016-03-04T01:16:16.316Z,958.81
2016-03-04T01:17:16.319Z,958.84
2016-03-04T01:18:16.322Z,958.84
2016-03-04T01:19:16.309Z,958.81
2016-03-04T01:20:16.311Z,958.88
2016-03-04T01:21:16.315Z,958.88
2016-03-04T01:22:16.317Z,958.87
2016-03-04T01:23:16.320Z,958.86
2016-03-04T01:24:16.306Z,958.87
2016-03-04T01:25:16.309Z,958.89
2016-03-04T01:26:16.312Z,958.88
2016-03-04T01:27:16.315Z,958.87
2016-03-04T01:28:16.317Z,958.87
2016-03-04T01:29:16.304Z,958.84
2016-03-04T01:30:16.307Z,958.85
2016-03-04T01:31:16.309Z,958.86
2016-03-04T01:32:16.312Z,958.86
2016-03-04T01:33:16.315Z,958.88
2016-03-04T01:34:16.303Z,958.84
2016-03-04T01:35:16.305Z,958.88
2016-03-04T01:36:16.308Z,958.87
2016-03-04T01:37:16.310Z,958.85
2016-03-04T01:38:16.297Z,958.87
2016-03-04T01:39:16.315Z,958.88
2016-03-04T01:40:16.303Z,958.89
2016-03-04T01:41:16.305Z,958.88
2016-03-04T01:42:16.308Z,958.9
2016-03-04T01:43:16.310Z,958.88
2016-03-04T01:44:16.329Z,958.9
2016-03-04T01:45:16.332Z,958.92
2016-03-04T01:46:16.335Z,958.87
2016-03-04T01:47:16.322Z,958.9
2016-03-04T01:48:16.309Z,958.9
2016-03-04T01:49:16.296Z,958.88
2016-03-04T01:50:16.299Z,958.88
2016-03-04T01:51:16.301Z,958.9
2016-03-04T01:52:16.303Z,958.91
2016-03-04T01:53:16.307Z,958.89
2016-03-04T01:54:16.294Z,958.88
2016-03-04T01:55:16.296Z,958.89
2016-03-04T01:56:16.298Z,958.93
2016-03-04T01:57:16.301Z,958.95
2016-03-04T01:58:16.289Z,958.94
2016-03-04T01:59:16.291Z,958.93
2016-03-04T02:00:16.294Z,958.96
2016-03-04T02:01:16.297Z,958.93
2016-03-04T02:02:16.300Z,958.94
2016-03-04T02:03:16.286Z,958.92
2016-03-04T02:04:16.290Z,958.92
2016-03-04T02:05:16.292Z,958.92
2016-03-04T02:06:16.294Z,958.91
2016-03-04T02:07:16.297Z,958.94
2016-03-04T02:08:16.299Z,958.93
2016-03-04T02:09:16.286Z,958.95
2016-03-04T02:10:16.289Z,958.97
2016-03-04T02:11:16.291Z,958.92
2016-03-04T02:12:16.294Z,958.93
2016-03-04T02:13:16.297Z,958.94
2016-03-04T02:14:16.284Z,958.97
2016-03-04T02:15:16.287Z,958.93
2016-03-04T02:16:16.290Z,958.93
2016-03-04T02:17:16.293Z,958.89
2016-03-04T02:18:16.295Z,958.9
2016-03-04T02:19:16.282Z,958.92
2016-03-04T02:20:16.285Z,958.86
2016-03-04T02:21:16.287Z,958.88
2016-03-04T02:22:16.290Z,958.86
2016-03-04T02:23:16.292Z,958.86
2016-03-04T02:24:16.295Z,958.87
2016-03-04T02:25:16.283Z,958.89
2016-03-04T02:26:16.286Z,958.86
2016-03-04T02:27:16.277Z,958.84
2016-03-04T02:28:16.280Z,958.83
2016-03-04T02:29:16.282Z,958.86
2016-03-04T02:30:16.285Z,958.82
2016-03-04T02:31:16.288Z,958.8
2016-03-04T02:32:16.291Z,958.86
2016-03-04T02:33:16.277Z,958.82
2016-03-04T02:34:16.280Z,958.8
2016-03-04T02:35:16.283Z,958.81
2016-03-04T02:36:16.286Z,958.82
2016-03-04T02:37:16.288Z,958.82
2016-03-04T02:38:16.291Z,958.81
2016-03-04T02:39:16.278Z,958.8
2016-03-04T02:40:16.281Z,958.74
2016-03-04T02:41:16.284Z,958.72
2016-03-04T02:42:16.270Z,958.7
2016-03-04T02:43:16.273Z,958.7
2016-03-04T02:44:16.276Z,958.67
2016-03-04T02:45:16.278Z,958.65
2016-03-04T02:46:16.281Z,958.63
2016-03-04T02:47:16.268Z,958.67
2016-03-04T02:48:16.270Z,958.64
2016-03-04T02:49:16.273Z,958.7
2016-03-04T02:50:16.276Z,958.7
2016-03-04T02:51:16.279Z,958.69
2016-03-04T02:52:16.266Z,958.66
2016-03-04T02:53:16.269Z,958.6
2016-03-04T02:54:16.271Z,958.61
2016-03-04T02:55:16.274Z,958.61
2016-03-04T02:56:16.277Z,958.62
2016-03-04T02:57:16.264Z,958.59
2016-03-04T02:58:16.267Z,958.62
2016-03-04T02:59:16.285Z,958.6
2016-03-04T03:00:16.272Z,958.6
2016-03-04T03:01:16.275Z,958.62
2016-03-04T03:02:16.278Z,958.58
2016-03-04T03:03:16.264Z,958.61
2016-03-04T03:04:16.267Z,958.57
2016-03-04T03:05:16.269Z,958.61
2016-03-04T03:06:16.272Z,958.6
2016-03-04T03:07:16.274Z,958.6
2016-03-04T03:08:16.262Z,958.61
2016-03-04T03:09:16.265Z,958.6
2016-03-04T03:10:16.268Z,958.61
2016-03-04T03:11:16.271Z,958.63
2016-03-04T03:12:16.273Z,958.63
2016-03-04T03:13:16.259Z,958.66
2016-03-04T03:14:16.293Z,958.65
2016-03-04T03:15:16.266Z,958.65
2016-03-04T03:16:16.268Z,958.64
2016-03-04T03:17:16.255Z,958.64
2016-03-04T03:18:16.258Z,958.64
2016-03-04T03:19:16.261Z,958.63
2016-03-04T03:20:16.263Z,958.6
2016-03-04T03:21:16.266Z,958.59
2016-03-04T03:22:16.253Z,958.58
2016-03-04T03:23:16.256Z,958.6
2016-03-04T03:24:16.258Z,958.58
2016-03-04T03:25:16.261Z,958.58
2016-03-04T03:26:16.247Z,958.55
2016-03-04T03:27:16.250Z,958.56
2016-03-04T03:28:16.254Z,958.49
2016-03-04T03:29:16.256Z,958.5
2016-03-04T03:30:16.259Z,958.45
2016-03-04T03:31:16.261Z,958.47
2016-03-04T03:32:16.249Z,958.45
2016-03-04T03:33:16.251Z,958.42
2016-03-04T03:34:16.254Z,958.45
2016-03-04T03:35:16.257Z,958.45
2016-03-04T03:36:16.244Z,958.45
2016-03-04T03:37:16.246Z,958.43
2016-03-04T03:38:16.249Z,958.44
2016-03-04T03:39:16.251Z,958.42
2016-03-04T03:40:16.254Z,958.4
2016-03-04T03:41:16.242Z,958.4
2016-03-04T03:42:16.244Z,958.43
2016-03-04T03:43:16.247Z,958.44
2016-03-04T03:44:16.249Z,958.43
2016-03-04T03:45:16.252Z,958.45
2016-03-04T03:46:16.239Z,958.43
2016-03-04T03:47:16.242Z,958.41
2016-03-04T03:48:16.245Z,958.42
2016-03-04T03:49:16.248Z,958.41
2016-03-04T03:50:16.235Z,958.36
2016-03-04T03:51:16.237Z,958.37
2016-03-04T03:52:16.239Z,958.34
2016-03-04T03:53:16.242Z,958.4
2016-03-04T03:54:16.246Z,958.35
2016-03-04T03:55:16.232Z,958.38
2016-03-04T03:56:16.235Z,958.43
2016-03-04T03:57:16.238Z,958.4
2016-03-04T03:58:16.241Z,958.38
2016-03-04T03:59:16.227Z,958.36
2016-03-04T04:00:16.230Z,958.35
2016-03-04T04:01:16.233Z,958.29
2016-03-04T04:02:16.235Z,958.28
2016-03-04T04:03:16.222Z,958.27
2016-03-04T04:04:16.225Z,958.24
2016-03-04T04:05:16.227Z,958.21
2016-03-04T04:06:16.230Z,958.2
2016-03-04T04:07:16.218Z,958.15
2016-03-04T04:08:16.221Z,958.19
2016-03-04T04:09:16.224Z,958.16
2016-03-04T04:10:16.226Z,958.16
2016-03-04T04:11:16.229Z,958.14
2016-03-04T04:12:16.215Z,958.15
2016-03-04T04:13:16.218Z,958.11
2016-03-04T04:14:16.220Z,958.11
2016-03-04T04:15:16.224Z,958.07
2016-03-04T04:16:16.227Z,958.06
2016-03-04T04:17:16.213Z,958.07
2016-03-04T04:18:16.216Z,958.02
2016-03-04T04:19:16.218Z,958.09
2016-03-04T04:20:16.221Z,958.01
2016-03-04T04:21:16.208Z,958.02
2016-03-04T04:22:16.212Z,957.98
2016-03-04T04:23:16.214Z,957.97
2016-03-04T04:24:16.217Z,957.94
2016-03-04T04:25:16.203Z,957.91
2016-03-04T04:26:16.206Z,957.92
2016-03-04T04:27:16.208Z,957.91
2016-03-04T04:28:16.212Z,957.85
2016-03-04T04:29:16.215Z,957.84
2016-03-04T04:30:16.202Z,957.83
2016-03-04T04:31:16.204Z,957.85
2016-03-04T04:32:16.207Z,957.84
2016-03-04T04:33:16.210Z,957.81
2016-03-04T04:34:16.196Z,957.83
2016-03-04T04:35:16.199Z,957.76
2016-03-04T04:36:16.202Z,957.77
2016-03-04T04:37:16.205Z,957.73
2016-03-04T04:38:16.191Z,957.73
2016-03-04T04:39:16.194Z,957.72
2016-03-04T04:40:16.196Z,957.73
2016-03-04T04:41:16.199Z,957.68
2016-03-04T04:42:16.187Z,957.68
2016-03-04T04:43:16.189Z,957.66
2016-03-04T04:44:16.193Z,957.65
2016-03-04T04:45:16.195Z,957.63
2016-03-04T04:46:16.182Z,957.59
2016-03-04T04:47:16.184Z,957.6
2016-03-04T04:48:16.188Z,957.58
2016-03-04T04:49:16.190Z,957.58
2016-03-04T04:50:16.177Z,957.56
2016-03-04T04:51:16.179Z,957.55
2016-03-04T04:52:16.182Z,957.53
2016-03-04T04:53:16.185Z,957.52
2016-03-04T04:54:16.182Z,957.52
2016-03-04T04:55:16.173Z,957.48
2016-03-04T04:56:16.786Z,957.53
2016-03-04T04:57:16.180Z,957.54
2016-03-04T04:58:16.166Z,957.55
2016-03-04T04:59:16.169Z,957.52
2016-03-04T05:00:16.171Z,957.53
2016-03-04T05:01:16.174Z,957.49
2016-03-04T05:02:16.176Z,957.47
2016-03-04T05:03:16.164Z,957.5
2016-03-04T05:04:16.168Z,957.47
2016-03-04T05:05:16.170Z,957.48
2016-03-04T05:06:16.157Z,957.42
2016-03-04T05:07:16.175Z,957.41
2016-03-04T05:08:16.162Z,957.37
2016-03-04T05:09:16.165Z,957.38
2016-03-04T05:10:16.152Z,957.36
2016-03-04T05:11:16.154Z,957.36
2016-03-04T05:12:16.157Z,957.36
2016-03-04T05:13:16.144Z,957.36
2016-03-04T05:14:16.162Z,957.33
2016-03-04T05:15:16.149Z,957.33
2016-03-04T05:16:16.153Z,957.31
2016-03-04T05:17:16.156Z,957.31
2016-03-04T05:18:16.142Z,957.24
2016-03-04T05:19:16.145Z,957.23
2016-03-04T05:20:16.163Z,957.22
2016-03-04T05:21:16.135Z,957.2
2016-03-04T05:22:16.153Z,957.17
2016-03-04T05:23:16.141Z,957.19
2016-03-04T05:24:16.143Z,957.18
2016-03-04T05:25:16.146Z,957.14
2016-03-04T05:26:16.148Z,957.09
2016-03-04T05:27:16.135Z,957.12
2016-03-04T05:28:16.137Z,957.11
2016-03-04T05:29:16.141Z,957.07
2016-03-04T05:30:16.128Z,957.05
2016-03-04T05:31:16.130Z,957.02
2016-03-04T05:32:16.133Z,956.97
2016-03-04T05:33:16.135Z,956.98
2016-03-04T05:34:16.123Z,957.01
2016-03-04T05:35:16.126Z,956.95
2016-03-04T05:36:16.128Z,956.97
2016-03-04T05:37:16.131Z,956.95
2016-03-04T05:38:16.118Z,956.88
2016-03-04T05:39:16.120Z,956.91
2016-03-04T05:40:16.123Z,956.86
2016-03-04T05:41:16.125Z,956.88
2016-03-04T05:42:16.113Z,956.87
2016-03-04T05:43:16.116Z,956.83
2016-03-04T05:44:16.118Z,956.81
2016-03-04T05:45:16.106Z,956.78
2016-03-04T05:46:16.108Z,956.82
2016-03-04T05:47:16.111Z,956.84
2016-03-04T05:48:16.113Z,956.77
2016-03-04T05:49:16.100Z,956.8
2016-03-04T05:50:16.103Z,956.77
2016-03-04T05:51:16.106Z,956.74
2016-03-04T05:52:16.093Z,956.79
2016-03-04T05:53:16.096Z,956.79
2016-03-04T05:54:16.098Z,956.8
2016-03-04T05:55:16.102Z,956.76
2016-03-04T05:56:16.104Z,956.76
2016-03-04T05:57:16.091Z,956.75
2016-03-04T05:58:16.094Z,956.76
2016-03-04T05:59:16.096Z,956.69
2016-03-04T06:00:16.083Z,956.66
2016-03-04T06:01:16.085Z,956.65
2016-03-04T06:02:16.088Z,956.57
2016-03-04T06:03:16.091Z,956.56
2016-03-04T06:04:16.094Z,956.52
2016-03-04T06:05:16.082Z,956.55
2016-03-04T06:06:16.084Z,956.48
2016-03-04T06:07:16.087Z,956.44
2016-03-04T06:08:16.086Z,956.4
2016-03-04T06:09:16.061Z,956.4
2016-03-04T06:10:16.051Z,956.37
2016-03-04T06:11:16.041Z,956.37
2016-03-04T06:12:16.031Z,956.35
2016-03-04T06:13:16.006Z,956.33
2016-03-04T06:14:16.004Z,956.28
2016-03-04T06:15:16.002Z,956.25
2016-03-04T06:16:15.986Z,956.24
2016-03-04T06:17:15.984Z,956.2
2016-03-04T06:18:15.983Z,956.19
2016-03-04T06:19:15.984Z,956.23
2016-03-04T06:20:15.985Z,956.25
2016-03-04T06:21:15.970Z,956.28
2016-03-04T06:22:15.971Z,956.29
2016-03-04T06:23:15.972Z,956.32
2016-03-04T06:24:15.959Z,956.32
2016-03-04T06:25:15.961Z,956.33
2016-03-04T06:26:15.963Z,956.3
2016-03-04T06:27:15.965Z,956.29
2016-03-04T06:28:15.967Z,956.27
2016-03-04T06:29:15.954Z,956.24
2016-03-04T06:30:15.957Z,956.24
2016-03-04T06:31:15.960Z,956.23
2016-03-04T06:32:15.962Z,956.21
2016-03-04T06:33:15.949Z,956.18
2016-03-04T06:34:15.967Z,956.17
2016-03-04T06:35:15.954Z,956.16
2016-03-04T06:36:15.957Z,956.14
2016-03-04T06:37:15.960Z,956.12
2016-03-04T06:38:15.947Z,956.12
2016-03-04T06:39:15.950Z,956.09
2016-03-04T06:40:15.953Z,956.07
2016-03-04T06:41:15.955Z,956.06
2016-03-04T06:42:15.958Z,956.09
2016-03-04T06:43:15.945Z,956.06
2016-03-04T06:44:15.948Z,956.07
2016-03-04T06:45:15.950Z,956.05
2016-03-04T06:46:15.953Z,956.03
2016-03-04T06:47:15.955Z,955.98
2016-03-04T06:48:15.942Z,955.99
2016-03-04T06:49:15.944Z,955.94
2016-03-04T06:50:15.948Z,955.91
2016-03-04T06:51:15.967Z,955.89
2016-03-04T06:52:15.953Z,955.88
2016-03-04T06:53:15.956Z,955.88
2016-03-04T06:54:15.958Z,955.82
2016-03-04T06:55:15.946Z,955.78
2016-03-04T06:56:15.949Z,955.73
2016-03-04T06:57:15.951Z,955.67
2016-03-04T06:58:15.954Z,955.67
2016-03-04T06:59:15.957Z,955.69
2016-03-04T07:00:15.959Z,955.69
2016-03-04T07:01:15.962Z,955.65
2016-03-04T07:02:15.948Z,955.63
2016-03-04T07:03:15.952Z,955.6
2016-03-04T07:04:15.954Z,955.54
2016-03-04T07:05:15.957Z,955.56
2016-03-04T07:06:16.570Z,955.5
2016-03-04T07:07:16.385Z,955.48
2016-03-04T07:08:16.121Z,955.41
2016-03-04T07:09:15.967Z,955.42
2016-03-04T07:10:15.986Z,955.35
2016-03-04T07:11:16.114Z,955.34
2016-03-04T07:12:16.398Z,955.35
2016-03-04T07:13:16.385Z,955.29
2016-03-04T07:14:16.388Z,955.28
2016-03-04T07:15:16.437Z,955.29
2016-03-04T07:16:16.392Z,955.29
2016-03-04T07:17:16.395Z,955.27
2016-03-04T07:18:16.398Z,955.24
2016-03-04T07:19:16.400Z,955.2
2016-03-04T07:20:16.403Z,955.22
2016-03-04T07:21:15.985Z,955.19
2016-03-04T07:22:16.394Z,955.16
2016-03-04T07:23:16.396Z,955.17
2016-03-04T07:24:16.399Z,955.14
2016-03-04T07:25:16.433Z,955.12
2016-03-04T07:26:16.419Z,955.06
2016-03-04T07:27:16.391Z,955.08
2016-03-04T07:28:16.424Z,955.08
2016-03-04T07:29:16.412Z,955.04
2016-03-04T07:30:16.446Z,955.04
2016-03-04T07:31:16.432Z,955.04
2016-03-04T07:32:16.452Z,955.04
2016-03-04T07:33:16.017Z,955.02
2016-03-04T07:34:16.020Z,955.02
2016-03-04T07:35:16.116Z,955.01
2016-03-04T07:36:16.243Z,955.04
2016-03-04T07:37:16.465Z,954.99
2016-03-04T07:38:16.451Z,954.97
2016-03-04T07:39:16.455Z,955
2016-03-04T07:40:16.457Z,954.94
2016-03-04T07:41:16.460Z,954.9
2016-03-04T07:42:16.041Z,954.87
2016-03-04T07:43:16.044Z,954.83
2016-03-04T07:44:16.047Z,954.81
2016-03-04T07:45:16.064Z,954.75
2016-03-04T07:46:16.053Z,954.7
2016-03-04T07:47:16.055Z,954.68
2016-03-04T07:48:16.057Z,954.65
2016-03-04T07:49:16.060Z,954.6
2016-03-04T07:50:16.063Z,954.56
2016-03-04T07:51:16.065Z,954.49
2016-03-04T07:52:16.068Z,954.51
2016-03-04T07:53:16.085Z,954.46
2016-03-04T07:54:16.089Z,954.45
2016-03-04T07:55:16.091Z,954.45
2016-03-04T07:56:16.079Z,954.41
2016-03-04T07:57:16.097Z,954.47
2016-03-04T07:58:16.099Z,954.43
2016-03-04T07:59:16.102Z,954.47
2016-03-04T08:00:16.105Z,954.47
2016-03-04T08:01:16.108Z,954.46
2016-03-04T08:02:16.110Z,954.5
2016-03-04T08:03:16.112Z,954.48
2016-03-04T08:04:16.116Z,954.47
2016-03-04T08:05:16.118Z,954.52
2016-03-04T08:06:16.121Z,954.45
2016-03-04T08:07:16.140Z,954.44
2016-03-04T08:08:16.126Z,954.33
2016-03-04T08:09:16.145Z,954.34
2016-03-04T08:10:16.147Z,954.32
2016-03-04T08:11:16.151Z,954.31
2016-03-04T08:12:16.153Z,954.32
2016-03-04T08:13:16.155Z,954.29
2016-03-04T08:14:16.158Z,954.28
2016-03-04T08:15:16.161Z,954.28
2016-03-04T08:16:16.164Z,954.24
2016-03-04T08:17:16.167Z,954.2
2016-03-04T08:18:16.170Z,954.23
2016-03-04T08:19:16.187Z,954.24
2016-03-04T08:20:16.189Z,954.19
2016-03-04T08:21:16.192Z,954.18
2016-03-04T08:22:16.195Z,954.12
2016-03-04T08:23:16.198Z,954.12
2016-03-04T08:24:16.216Z,954.1
2016-03-04T08:25:16.203Z,954.12
2016-03-04T08:26:16.205Z,954.15
2016-03-04T08:27:16.208Z,954.18
2016-03-04T08:28:16.211Z,954.21
2016-03-04T08:29:16.214Z,954.17
2016-03-04T08:30:16.232Z,954.14
2016-03-04T08:31:16.235Z,954.09
2016-03-04T08:32:16.238Z,954.11
2016-03-04T08:33:16.240Z,954.03
2016-03-04T08:34:16.243Z,953.96
2016-03-04T08:35:16.246Z,953.92
2016-03-04T08:36:16.248Z,953.91
2016-03-04T08:37:16.267Z,953.87
2016-03-04T08:38:16.270Z,953.85
2016-03-04T08:39:16.273Z,953.84
2016-03-04T08:40:16.275Z,953.8
2016-03-04T08:41:16.278Z,953.8
2016-03-04T08:42:16.281Z,953.75
2016-03-04T08:43:16.283Z,953.72
2016-03-04T08:44:16.286Z,953.7
2016-03-04T08:45:16.289Z,953.65
2016-03-04T08:46:16.291Z,953.57
2016-03-04T08:47:16.309Z,953.51
2016-03-04T08:48:16.312Z,953.52
2016-03-04T08:49:16.315Z,953.55
2016-03-04T08:50:16.317Z,953.59
2016-03-04T08:51:16.320Z,953.59
2016-03-04T08:52:16.323Z,953.53
2016-03-04T08:53:16.325Z,953.52
2016-03-04T08:54:16.343Z,953.53
2016-03-04T08:55:16.331Z,953.49
2016-03-04T08:56:16.349Z,953.5
2016-03-04T08:57:16.336Z,953.46
2016-03-04T08:58:16.355Z,953.5
2016-03-04T08:59:16.357Z,953.42
2016-03-04T09:00:16.360Z,953.4
2016-03-04T09:01:16.363Z,953.35
2016-03-04T09:02:16.365Z,953.34
2016-03-04T09:03:16.368Z,953.34
2016-03-04T09:04:16.370Z,953.27
2016-03-04T09:05:16.374Z,953.22
2016-03-04T09:06:16.377Z,953.2
2016-03-04T09:07:16.395Z,953.21
2016-03-04T09:08:16.398Z,953.19
2016-03-04T09:09:16.385Z,953.16
2016-03-04T09:10:16.403Z,953.15
2016-03-04T09:11:16.406Z,953.12
2016-03-04T09:12:16.408Z,953.17
2016-03-04T09:13:16.412Z,953.16
2016-03-04T09:14:16.414Z,953.15
2016-03-04T09:15:16.417Z,953.16
2016-03-04T09:16:16.419Z,953.18
2016-03-04T09:17:16.422Z,953.15
2016-03-04T09:18:16.424Z,953.12
2016-03-04T09:19:16.427Z,953.1
2016-03-04T09:20:16.445Z,953.09
2016-03-04T09:21:16.433Z,953.09
2016-03-04T09:22:16.435Z,953.13
2016-03-04T09:23:16.454Z,953.09
2016-03-04T09:24:16.457Z,953.06
2016-03-04T09:25:16.459Z,953.07
2016-03-04T09:26:16.462Z,953.07
2016-03-04T09:27:16.465Z,953.03
2016-03-04T09:28:16.467Z,953.02
2016-03-04T09:29:16.470Z,953
2016-03-04T09:30:16.473Z,952.97
2016-03-04T09:31:16.475Z,953.02
2016-03-04T09:32:16.479Z,953.01
2016-03-04T09:33:16.481Z,953
2016-03-04T09:34:16.483Z,953.07
2016-03-04T09:35:16.486Z,953.04
2016-03-04T09:36:16.489Z,952.98
2016-03-04T09:37:16.508Z,952.99
2016-03-04T09:38:16.494Z,952.96
2016-03-04T09:39:16.497Z,952.95
2016-03-04T09:40:16.500Z,952.92
2016-03-04T09:41:16.503Z,952.84
2016-03-04T09:42:16.521Z,952.86
2016-03-04T09:43:16.524Z,952.8
2016-03-04T09:44:16.526Z,952.78
2016-03-04T09:45:16.529Z,952.79
2016-03-04T09:46:16.532Z,952.76
2016-03-04T09:47:16.534Z,952.69
2016-03-04T09:48:16.537Z,952.68
2016-03-04T09:49:16.540Z,952.69
2016-03-04T09:50:16.543Z,952.62
2016-03-04T09:51:16.546Z,952.57
2016-03-04T09:52:16.548Z,952.6
2016-03-04T09:53:16.550Z,952.55
2016-03-04T09:54:16.554Z,952.59
2016-03-04T09:55:16.556Z,952.53
2016-03-04T09:56:16.558Z,952.48
2016-03-04T09:57:16.562Z,952.45
2016-03-04T09:58:16.579Z,952.45
2016-03-04T09:59:16.582Z,952.39
2016-03-04T10:00:16.585Z,952.41
2016-03-04T10:01:16.572Z,952.41
2016-03-04T10:02:16.590Z,952.36
2016-03-04T10:03:16.593Z,952.34
2016-03-04T10:04:16.580Z,952.38
2016-03-04T10:05:16.597Z,952.31
2016-03-04T10:06:16.601Z,952.33
2016-03-04T10:07:16.603Z,952.28
2016-03-04T10:08:16.606Z,952.29
2016-03-04T10:09:16.609Z,952.28
2016-03-04T10:10:16.611Z,952.23
2016-03-04T10:11:16.614Z,952.27
2016-03-04T10:12:16.617Z,952.22
2016-03-04T10:13:16.619Z,952.2
2016-03-04T10:14:16.622Z,952.19
2016-03-04T10:15:16.625Z,952.2
2016-03-04T10:16:16.627Z,952.15
2016-03-04T10:17:16.631Z,952.09
2016-03-04T10:18:16.633Z,951.99
2016-03-04T10:19:16.651Z,951.99
2016-03-04T10:20:17.077Z,951.93
2016-03-04T10:21:16.641Z,951.91
2016-03-04T10:22:16.643Z,951.87
2016-03-04T10:23:16.647Z,951.85
2016-03-04T10:24:16.649Z,951.88
2016-03-04T10:25:16.652Z,951.86
2016-03-04T10:26:16.670Z,951.91
2016-03-04T10:27:16.657Z,951.88
2016-03-04T10:28:16.660Z,951.89
2016-03-04T10:29:16.678Z,951.9
2016-03-04T10:30:16.665Z,952
2016-03-04T10:31:16.683Z,951.99
2016-03-04T10:32:16.671Z,952.03
2016-03-04T10:33:16.689Z,952.05
2016-03-04T10:34:16.692Z,952.03
2016-03-04T10:35:16.679Z,952.01
2016-03-04T10:36:16.681Z,951.98
2016-03-04T10:37:16.700Z,951.95
2016-03-04T10:38:16.703Z,952
2016-03-04T10:39:16.705Z,951.91
2016-03-04T10:40:16.708Z,951.85
2016-03-04T10:41:16.711Z,951.87
2016-03-04T10:42:16.713Z,951.89
2016-03-04T10:43:16.716Z,951.8
2016-03-04T10:44:16.718Z,951.73
2016-03-04T10:45:16.722Z,951.79
2016-03-04T10:46:16.724Z,951.75
2016-03-04T10:47:16.726Z,951.76
2016-03-04T10:48:16.730Z,951.74
2016-03-04T10:49:16.732Z,951.73
2016-03-04T10:50:16.735Z,951.74
2016-03-04T10:51:16.738Z,951.7
2016-03-04T10:52:16.741Z,951.66
2016-03-04T10:53:16.743Z,951.62
2016-03-04T10:54:16.746Z,951.59
2016-03-04T10:55:16.748Z,951.54
2016-03-04T10:56:16.751Z,951.54
2016-03-04T10:57:16.754Z,951.47
2016-03-04T10:58:16.757Z,951.42
2016-03-04T10:59:16.759Z,951.37
2016-03-04T11:00:16.761Z,951.32
2016-03-04T11:01:16.765Z,951.25
2016-03-04T11:02:16.767Z,951.29
2016-03-04T11:03:16.769Z,951.16
2016-03-04T11:04:16.773Z,951.2
2016-03-04T11:05:16.776Z,951.09
2016-03-04T11:06:16.778Z,951.09
2016-03-04T11:07:16.780Z,951
2016-03-04T11:08:16.784Z,950.98
2016-03-04T11:09:16.786Z,950.88
2016-03-04T11:10:16.788Z,950.88
2016-03-04T11:11:16.792Z,950.85
2016-03-04T11:12:16.794Z,950.83
2016-03-04T11:13:16.797Z,950.87
2016-03-04T11:14:16.800Z,950.79
2016-03-04T11:15:16.802Z,950.77
2016-03-04T11:16:16.805Z,950.78
2016-03-04T11:17:16.807Z,950.77
2016-03-04T11:18:16.810Z,950.77
2016-03-04T11:19:16.829Z,950.81
2016-03-04T11:20:16.815Z,950.85
2016-03-04T11:21:16.835Z,950.84
2016-03-04T11:22:16.821Z,950.82
2016-03-04T11:23:16.823Z,950.88
2016-03-04T11:24:16.827Z,950.9
2016-03-04T11:25:16.829Z,950.87
2016-03-04T11:26:16.832Z,950.8
2016-03-04T11:27:16.850Z,950.79
2016-03-04T11:28:16.838Z,950.77
2016-03-04T11:29:16.856Z,950.69
2016-03-04T11:30:16.842Z,950.76
2016-03-04T11:31:16.861Z,950.73
2016-03-04T11:32:16.864Z,950.72
2016-03-04T11:33:16.850Z,950.77
2016-03-04T11:34:16.869Z,950.82
2016-03-04T11:35:16.872Z,950.8
2016-03-04T11:36:16.859Z,950.81
2016-03-04T11:37:16.877Z,950.78
2016-03-04T11:38:16.864Z,950.77
2016-03-04T11:39:16.883Z,950.73
2016-03-04T11:40:16.885Z,950.72
2016-03-04T11:41:16.872Z,950.72
2016-03-04T11:42:16.891Z,950.72
2016-03-04T11:43:16.894Z,950.75
2016-03-04T11:44:16.896Z,950.75
2016-03-04T11:45:16.898Z,950.77
2016-03-04T11:46:16.902Z,950.72
2016-03-04T11:47:16.904Z,950.7
2016-03-04T11:48:16.907Z,950.68
2016-03-04T11:49:16.910Z,950.68
2016-03-04T11:50:16.913Z,950.67
2016-03-04T11:51:16.915Z,950.6
2016-03-04T11:52:16.917Z,950.56
2016-03-04T11:53:16.921Z,950.58
2016-03-04T11:54:16.923Z,950.57
2016-03-04T11:55:16.925Z,950.57
2016-03-04T11:56:16.928Z,950.53
2016-03-04T11:57:16.931Z,950.52
2016-03-04T11:58:16.934Z,950.51
2016-03-04T11:59:16.936Z,950.45
2016-03-04T12:00:17.001Z,950.45
2016-03-04T12:01:16.942Z,950.49
2016-03-04T12:02:16.944Z,950.48
2016-03-04T12:03:16.947Z,950.51
2016-03-04T12:04:16.950Z,950.53
2016-03-04T12:05:16.953Z,950.56
2016-03-04T12:06:16.955Z,950.56
2016-03-04T12:07:16.958Z,950.55
2016-03-04T12:08:16.960Z,950.56
2016-03-04T12:09:16.963Z,950.55
2016-03-04T12:10:16.966Z,950.51
2016-03-04T12:11:16.969Z,950.47
2016-03-04T12:12:16.971Z,950.46
2016-03-04T12:13:16.974Z,950.44
2016-03-04T12:14:16.977Z,950.42
2016-03-04T12:15:16.979Z,950.4
2016-03-04T12:16:17.028Z,950.39
2016-03-04T12:17:16.985Z,950.34
2016-03-04T12:18:16.988Z,950.3
2016-03-04T12:19:16.990Z,950.29
2016-03-04T12:20:16.993Z,950.27
2016-03-04T12:21:16.996Z,950.26
2016-03-04T12:22:16.998Z,950.19
2016-03-04T12:23:17.001Z,950.15
2016-03-04T12:24:17.003Z,950.13
2016-03-04T12:25:17.007Z,950.04
2016-03-04T12:26:17.009Z,950.04
2016-03-04T12:27:17.011Z,949.94
2016-03-04T12:28:17.015Z,949.95
2016-03-04T12:29:17.017Z,949.91
2016-03-04T12:30:17.020Z,949.91
2016-03-04T12:31:17.022Z,949.81